createdAt,value
2022-10-25T05:32:03.766Z,12.70
2022-10-25T05:34:30.897Z,12.60
2022-10-25T05:36:58.615Z,12.60
2022-10-25T05:39:25.835Z,12.60
2022-10-25T05:41:53.136Z,12.60
2022-10-25T05:44:20.615Z,12.70
2022-10-25T05:46:47.870Z,12.70
2022-10-25T05:49:15.121Z,12.60
2022-10-25T05:51:42.378Z,12.70
2022-10-25T05:54:12.458Z,12.70
2022-10-25T05:56:40.113Z,12.60
2022-10-25T05:59:10.222Z,12.60
2022-10-25T06:01:41.419Z,12.60
2022-10-25T06:04:11.253Z,12.60
2022-10-25T06:06:40.694Z,12.60
2022-10-25T06:09:08.802Z,12.60
2022-10-25T06:11:37.583Z,12.60
2022-10-25T06:14:05.322Z,12.70
2022-10-25T06:16:34.028Z,12.80
2022-10-25T06:19:01.448Z,12.80
2022-10-25T06:21:30.406Z,12.80
2022-10-25T06:24:02.164Z,12.80
2022-10-25T06:26:31.010Z,12.90
2022-10-25T06:29:01.649Z,13.00
2022-10-25T06:31:30.061Z,13.00
2022-10-25T06:34:00.730Z,11.70
2022-10-25T06:36:30.453Z,13.00
2022-10-25T06:39:03.580Z,13.00
2022-10-25T06:41:37.278Z,13.10
2022-10-25T06:44:08.815Z,13.20
2022-10-25T06:47:04.371Z,13.20
2022-10-25T06:49:25.658Z,13.20
2022-10-25T06:51:55.452Z,13.20
2022-10-25T06:54:22.897Z,13.20
2022-10-25T06:56:50.439Z,13.40
2022-10-25T06:59:19.516Z,13.60
2022-10-25T07:01:47.583Z,13.70
2022-10-25T07:04:15.516Z,13.80
2022-10-25T07:06:42.767Z,13.90
2022-10-25T07:09:12.382Z,14.00
2022-10-25T07:11:42.533Z,14.00
2022-10-25T07:14:11.102Z,13.90
2022-10-25T07:16:39.110Z,13.80
2022-10-25T07:19:07.437Z,13.70
2022-10-25T07:21:34.690Z,13.60
2022-10-25T07:24:02.322Z,13.80
2022-10-25T07:26:32.673Z,14.00
2022-10-25T07:29:01.467Z,14.10
2022-10-25T07:31:35.595Z,14.20
2022-10-25T07:34:04.810Z,14.20
2022-10-25T07:36:32.472Z,14.10
2022-10-25T07:38:59.763Z,14.20
2022-10-25T07:41:27.564Z,14.30
2022-10-25T07:43:55.435Z,14.50
2022-10-25T07:46:23.558Z,14.60
2022-10-25T07:48:52.599Z,14.70
2022-10-25T07:51:39.550Z,14.90
2022-10-25T07:54:11.835Z,14.70
2022-10-25T07:56:39.425Z,16.00
2022-10-25T07:59:09.205Z,14.20
2022-10-25T08:01:37.094Z,16.90
2022-10-25T08:04:18.101Z,15.70
2022-10-25T08:06:45.582Z,16.00
2022-10-25T08:09:14.942Z,15.60
2022-10-25T08:11:56.109Z,16.70
2022-10-25T08:16:57.068Z,20.40
2022-10-25T08:19:24.545Z,21.10
2022-10-25T08:21:53.221Z,22.90
2022-10-25T08:24:21.910Z,24.00
2022-10-25T08:26:49.173Z,23.60
2022-10-25T08:29:19.374Z,24.80
2022-10-25T08:31:46.549Z,26.10
2022-10-25T08:34:16.085Z,27.10
2022-10-25T08:36:43.709Z,27.30
2022-10-25T08:39:16.941Z,27.90
2022-10-25T08:41:53.494Z,27.80
2022-10-25T08:44:59.555Z,27.00
2022-10-25T08:47:34.694Z,26.50
2022-10-25T08:50:10.409Z,26.60
2022-10-25T08:52:49.361Z,26.70
2022-10-25T08:55:23.393Z,26.60
2022-10-25T08:58:03.550Z,24.80
2022-10-25T09:00:38.469Z,23.20
2022-10-25T09:03:15.432Z,23.00
2022-10-25T09:06:14.965Z,21.60
2022-10-25T09:09:10.346Z,21.70
2022-10-25T09:12:04.867Z,21.50
2022-10-25T09:17:19.423Z,20.90
2022-10-25T09:22:46.541Z,20.30
2022-10-25T09:28:16.942Z,20.20
2022-10-25T09:30:46.259Z,18.60
2022-10-25T09:33:23.338Z,19.20
2022-10-25T09:35:55.281Z,19.40
2022-10-25T09:38:28.602Z,19.20
2022-10-25T09:41:06.039Z,19.10
2022-10-25T09:43:44.336Z,19.20
2022-10-25T09:46:24.242Z,19.50
2022-10-25T09:49:03.639Z,19.90
2022-10-25T09:51:40.531Z,19.90
2022-10-25T09:54:45.290Z,20.90
2022-10-25T09:57:12.696Z,21.20
2022-10-25T09:59:45.762Z,20.70
2022-10-25T10:02:25.340Z,21.20
2022-10-25T10:04:56.173Z,21.00
2022-10-25T10:07:35.118Z,21.00
2022-10-25T10:10:08.013Z,20.90
2022-10-25T10:12:39.761Z,21.00
2022-10-25T10:15:22.544Z,20.70
2022-10-25T10:18:11.260Z,21.10
2022-10-25T10:20:38.593Z,21.30
2022-10-25T10:23:08.550Z,21.60
2022-10-25T10:25:36.173Z,21.40
2022-10-25T10:28:04.045Z,21.30
2022-10-25T10:30:31.811Z,21.90
2022-10-25T10:33:01.822Z,22.60
2022-10-25T10:35:35.411Z,22.50
2022-10-25T10:38:25.193Z,22.20
2022-10-25T10:41:12.020Z,21.60
2022-10-25T10:43:40.281Z,21.60
2022-10-25T10:46:14.308Z,21.30
2022-10-25T10:48:44.298Z,21.20
2022-10-25T10:51:43.107Z,21.20
2022-10-25T10:54:26.446Z,20.90
2022-10-25T10:56:57.476Z,21.20
2022-10-25T10:59:33.864Z,21.10
2022-10-25T11:02:44.410Z,20.80
2022-10-25T11:05:20.877Z,20.80
2022-10-25T11:07:56.589Z,20.60
2022-10-25T11:10:29.307Z,20.70
2022-10-25T11:13:15.093Z,21.10
2022-10-25T11:18:52.023Z,21.30
2022-10-25T11:21:48.114Z,21.50
2022-10-25T11:24:29.696Z,21.20
2022-10-25T11:27:09.150Z,21.20
2022-10-25T11:29:52.902Z,21.30
2022-10-25T11:32:43.121Z,20.90
2022-10-25T11:35:47.591Z,20.60
2022-10-25T11:38:40.647Z,20.20
2022-10-25T11:41:29.173Z,20.10
2022-10-25T11:44:36.353Z,19.70
2022-10-25T11:50:39.464Z,19.50
2022-10-25T11:56:02.709Z,19.10
2022-10-25T12:02:00.305Z,18.90
2022-10-25T12:07:35.397Z,19.00
2022-10-25T12:13:22.686Z,18.80
2022-10-25T12:15:54.627Z,18.80
2022-10-25T12:18:29.792Z,18.70
2022-10-25T12:20:58.978Z,18.60
2022-10-25T12:23:30.424Z,18.30
2022-10-25T12:26:07.510Z,18.30
2022-10-25T12:28:48.248Z,18.20
2022-10-25T12:31:29.415Z,18.20
2022-10-25T12:34:36.595Z,18.70
2022-10-25T12:37:11.963Z,18.10
2022-10-25T12:39:43.105Z,18.00
2022-10-25T12:42:19.787Z,18.10
2022-10-25T12:45:17.220Z,18.10
2022-10-25T12:48:21.964Z,17.90
2022-10-25T12:54:24.241Z,17.90
2022-10-25T12:57:19.962Z,18.10
2022-10-25T13:00:15.922Z,18.20
2022-10-25T13:03:21.152Z,18.50
2022-10-25T13:06:03.248Z,18.50
2022-10-25T13:08:32.535Z,18.10
2022-10-25T13:11:03.441Z,17.90
2022-10-25T13:13:34.210Z,17.80
2022-10-25T13:16:04.584Z,17.80
2022-10-25T13:18:38.037Z,17.90
2022-10-25T13:21:09.216Z,18.00
2022-10-25T13:26:27.296Z,18.10
2022-10-25T13:28:57.989Z,18.20
2022-10-25T13:31:46.790Z,18.20
2022-10-25T13:34:22.118Z,18.10
2022-10-25T13:36:53.298Z,17.70
2022-10-25T13:39:28.757Z,17.90
2022-10-25T13:42:02.724Z,17.90
2022-10-25T13:44:30.247Z,17.90
2022-10-25T13:46:57.504Z,18.10
2022-10-25T13:49:36.233Z,18.00
2022-10-25T13:52:07.848Z,17.90
2022-10-25T13:54:48.801Z,17.70
2022-10-25T13:57:52.777Z,17.70
2022-10-25T14:00:37.599Z,17.70
2022-10-25T14:08:59.486Z,17.70
2022-10-25T14:11:38.527Z,17.60
2022-10-25T14:14:31.269Z,17.50
2022-10-25T14:17:35.503Z,17.60
2022-10-25T14:22:46.694Z,17.70
2022-10-25T14:25:25.659Z,17.70
2022-10-25T14:28:15.131Z,17.70
2022-10-25T14:30:44.619Z,17.70
2022-10-25T14:33:43.348Z,17.70
2022-10-25T14:36:28.308Z,17.70
2022-10-25T14:38:59.482Z,17.70
2022-10-25T14:41:30.261Z,17.70
2022-10-25T14:43:58.523Z,17.60
2022-10-25T14:46:27.774Z,17.60
2022-10-25T14:48:58.049Z,17.50
2022-10-25T14:51:36.291Z,17.50
2022-10-25T14:54:07.462Z,17.50
2022-10-25T15:02:03.155Z,17.60
2022-10-25T15:04:34.448Z,17.40
2022-10-25T15:07:03.182Z,17.30
2022-10-25T15:09:46.910Z,17.40
2022-10-25T15:12:18.950Z,17.30
2022-10-25T15:14:48.359Z,17.30
2022-10-25T15:20:24.454Z,17.20
2022-10-25T15:23:00.541Z,17.00
2022-10-25T15:25:31.398Z,16.90
2022-10-25T15:28:13.247Z,16.90
2022-10-25T15:31:02.801Z,16.80
2022-10-25T15:33:32.149Z,16.70
2022-10-25T15:36:02.372Z,16.50
2022-10-25T15:38:54.159Z,16.40
2022-10-25T15:41:21.246Z,16.30
2022-10-25T15:43:48.627Z,16.20
2022-10-25T15:46:29.746Z,16.10
2022-10-25T15:48:59.835Z,16.00
2022-10-25T15:51:30.912Z,15.80
2022-10-25T15:53:58.717Z,15.70
2022-10-25T15:56:26.119Z,15.60
2022-10-25T15:58:53.690Z,15.60
